Time;durP1;ratioP1;P1;durP2;ratioP2;P2;SDS_P1;SDS_P2;PMS_P1;PMS_P2;Temp;Humidity;BMP_temperature;BMP_pressure;BME280_temperature;BME280_humidity;BME280_pressure;Samples;Min_cycle;Max_cycle;Signal;HPM_P1;HPM_P2
2022/01/06 00:01:08;;;;;;;5.10;0.75;;;;;;;1.09;100.00;100771.19;10099842;28;20078;-71
2022/01/06 00:06:08;;;;;;;1.85;0.60;;;;;;;1.12;100.00;100776.91;10107953;28;20047;-69
2022/01/06 00:11:07;;;;;;;6.97;1.00;;;;;;;1.08;100.00;100793.81;10089097;28;20047;-70
2022/01/06 00:26:48;;;;;;;5.82;1.73;;;;;;;1.01;100.00;100832.50;10101406;28;20071;-71
2022/01/06 00:31:45;;;;;;;5.90;1.20;;;;;;;0.94;100.00;100831.88;10090668;28;20047;-69
2022/01/06 00:36:43;;;;;;;9.93;0.88;;;;;;;0.89;100.00;100837.22;10095872;28;20053;-69
2022/01/06 00:41:39;;;;;;;6.85;0.80;;;;;;;0.92;100.00;100842.09;10106887;28;20039;-69
2022/01/06 00:46:36;;;;;;;6.38;0.73;;;;;;;0.91;100.00;100853.94;10103511;28;20046;-68
2022/01/06 00:51:32;;;;;;;5.68;0.85;;;;;;;0.89;100.00;100864.13;10093203;28;20047;-69
2022/01/06 00:56:29;;;;;;;7.50;0.80;;;;;;;0.89;100.00;100863.31;10095238;28;20074;-67
2022/01/06 01:01:25;;;;;;;6.60;1.00;;;;;;;0.76;100.00;100873.38;10091723;28;20047;-67
2022/01/06 01:06:22;;;;;;;4.53;0.77;;;;;;;0.77;100.00;100876.91;10100690;28;20057;-68
2022/01/06 01:11:19;;;;;;;7.97;0.73;;;;;;;0.74;100.00;100888.16;10082324;28;20046;-68
2022/01/06 01:16:25;;;;;;;3.53;0.50;;;;;;;0.81;100.00;100900.38;10100444;28;20511;-68
2022/01/06 01:21:27;;;;;;;6.18;0.90;;;;;;;0.79;100.00;100913.28;10104241;28;20046;-68
2022/01/06 01:26:25;;;;;;;4.50;0.93;;;;;;;0.65;100.00;100917.38;10098637;28;20870;-69
2022/01/06 01:36:19;;;;;;;9.18;1.10;;;;;;;0.53;100.00;100936.28;10094215;28;20046;-66
2022/01/06 01:41:16;;;;;;;5.82;1.13;;;;;;;0.46;100.00;100946.41;10102174;28;20449;-66
2022/01/06 01:46:16;;;;;;;7.28;0.90;;;;;;;0.49;100.00;100956.69;10105970;28;20116;-68
2022/01/06 01:51:13;;;;;;;8.70;0.85;;;;;;;0.50;100.00;100969.06;10091953;28;20081;-68
2022/01/06 01:56:12;;;;;;;4.40;0.98;;;;;;;0.43;100.00;100979.19;10092241;28;20051;-69
2022/01/06 02:01:09;;;;;;;10.48;1.00;;;;;;;0.40;100.00;100991.25;10077477;28;20134;-69
2022/01/06 02:06:06;;;;;;;6.18;1.33;;;;;;;0.33;100.00;100995.16;10093890;28;20039;-65
2022/01/06 02:11:02;;;;;;;4.25;0.90;;;;;;;0.28;100.00;100992.34;10099267;28;20054;-64
2022/01/06 02:16:01;;;;;;;9.25;0.98;;;;;;;0.36;100.00;100983.91;10096636;28;20508;-68
2022/01/06 02:20:58;;;;;;;6.03;1.00;;;;;;;0.43;100.00;100989.94;10099567;28;20047;-68
2022/01/06 02:25:54;;;;;;;4.75;0.90;;;;;;;0.33;100.00;100989.78;10089036;28;20043;-68
2022/01/06 02:30:51;;;;;;;8.73;0.82;;;;;;;0.33;100.00;100984.41;10090708;28;20454;-70
2022/01/06 02:35:48;;;;;;;5.50;1.00;;;;;;;0.12;100.00;100984.03;10094327;28;20667;-69
2022/01/06 02:40:45;;;;;;;8.32;1.10;;;;;;;0.24;100.00;100996.59;10093043;28;20130;-68
2022/01/06 02:45:42;;;;;;;3.90;0.77;;;;;;;0.18;100.00;100996.50;10094082;28;20047;-68
2022/01/06 02:50:41;;;;;;;4.25;1.02;;;;;;;0.11;100.00;101011.97;10098573;28;20078;-68
2022/01/06 02:55:53;;;;;;;7.40;0.90;;;;;;;0.01;100.00;101025.22;10089551;28;20125;-66
2022/01/06 03:01:10;;;;;;;7.97;1.00;;;;;;;0.09;100.00;101032.91;10094102;28;20464;-69
2022/01/06 03:06:06;;;;;;;6.05;0.68;;;;;;;0.07;100.00;101029.66;10103830;28;20051;-68
2022/01/06 03:11:04;;;;;;;2.60;1.02;;;;;;;0.04;100.00;101035.50;10095385;28;20101;-67
2022/01/06 03:16:01;;;;;;;3.33;0.90;;;;;;;0.06;100.00;101044.13;10101136;28;20583;-67
2022/01/06 03:20:58;;;;;;;3.35;0.90;;;;;;;0.07;100.00;101040.41;10094682;28;20042;-67
2022/01/06 03:25:54;;;;;;;5.93;0.93;;;;;;;0.02;100.00;101050.22;10110000;28;20562;-69
2022/01/06 03:30:51;;;;;;;4.40;0.90;;;;;;;0.04;100.00;101062.38;10101120;28;20035;-66
2022/01/06 03:35:47;;;;;;;6.97;0.88;;;;;;;-0.03;100.00;101077.84;10088229;28;20105;-66
2022/01/06 03:40:44;;;;;;;8.40;0.80;;;;;;;0.03;100.00;101087.66;10111428;28;20079;-69
2022/01/06 03:45:40;;;;;;;5.72;0.65;;;;;;;0.04;100.00;101093.84;10099427;28;20047;-68
2022/01/06 03:50:37;;;;;;;6.03;0.68;;;;;;;0.01;100.00;101105.06;10092498;28;20044;-69
2022/01/06 03:55:34;;;;;;;6.25;1.13;;;;;;;0.01;100.00;101115.81;10092236;28;20059;-68
2022/01/06 04:00:30;;;;;;;3.53;1.13;;;;;;;0.09;100.00;101108.19;10106287;28;20043;-67
2022/01/06 04:05:27;;;;;;;6.25;0.82;;;;;;;0.07;100.00;101129.13;10103893;28;20055;-68
2022/01/06 04:10:24;;;;;;;9.75;1.23;;;;;;;0.05;100.00;101144.69;10097430;28;20698;-66
2022/01/06 04:15:23;;;;;;;6.82;1.70;;;;;;;-0.02;100.00;101138.63;10096597;28;20046;-66
2022/01/06 04:20:19;;;;;;;7.28;0.77;;;;;;;-0.10;100.00;101152.41;10099320;28;20085;-66
2022/01/06 04:25:16;;;;;;;7.70;0.90;;;;;;;-0.17;100.00;101162.47;10088807;28;20047;-66
2022/01/06 04:30:13;;;;;;;4.43;0.70;;;;;;;-0.11;100.00;101175.00;10108962;28;20059;-65
2022/01/06 04:35:10;;;;;;;5.78;1.40;;;;;;;-0.09;100.00;101186.31;10096473;28;20050;-70
2022/01/06 04:40:08;;;;;;;4.82;0.95;;;;;;;-0.06;100.00;101185.84;10098283;28;20474;-72
2022/01/06 04:45:05;;;;;;;6.15;0.95;;;;;;;-0.01;100.00;101199.41;10095766;28;20055;-66
2022/01/06 04:50:02;;;;;;;7.63;1.27;;;;;;;-0.06;100.00;101207.34;10091452;28;20162;-68
2022/01/06 04:54:58;;;;;;;10.50;1.20;;;;;;;-0.09;100.00;101213.22;10093427;28;20047;-69
2022/01/06 04:59:55;;;;;;;7.32;0.90;;;;;;;-0.07;100.00;101213.75;10094921;28;20047;-69
2022/01/06 05:04:55;;;;;;;14.77;2.35;;;;;;;-0.09;100.00;101215.91;10107293;28;20195;-69
2022/01/06 05:09:52;;;;;;;6.22;1.20;;;;;;;-0.09;100.00;101229.34;10089746;28;20046;-70
2022/01/06 05:14:48;;;;;;;8.52;2.45;;;;;;;-0.17;100.00;101238.53;10078437;28;20141;-69
2022/01/06 05:19:46;;;;;;;6.93;1.20;;;;;;;-0.23;100.00;101245.69;10083742;28;20050;-69
2022/01/06 05:24:42;;;;;;;10.82;1.20;;;;;;;-0.04;100.00;101259.03;10085117;28;20085;-70
2022/01/06 05:29:39;;;;;;;3.47;1.27;;;;;;;-0.14;100.00;101267.66;10088561;28;20562;-69
2022/01/06 05:34:35;;;;;;;6.07;0.93;;;;;;;-0.19;100.00;101266.72;10093486;28;20047;-70
2022/01/06 05:39:33;;;;;;;6.63;0.90;;;;;;;-0.26;100.00;101267.63;10124617;28;20047;-70
2022/01/06 05:44:33;;;;;;;7.88;1.30;;;;;;;-0.26;100.00;101267.63;10100344;28;20042;-69
2022/01/06 05:49:30;;;;;;;5.75;1.25;;;;;;;-0.14;100.00;101274.88;10094875;28;20055;-70
2022/01/06 05:54:27;;;;;;;5.43;1.20;;;;;;;-0.02;100.00;101279.25;10093843;28;20066;-70
2022/01/06 05:59:24;;;;;;;8.25;1.60;;;;;;;-0.05;100.00;101286.94;10085461;28;20075;-64
2022/01/06 06:04:20;;;;;;;6.32;1.42;;;;;;;-0.09;100.00;101285.78;10099138;28;20414;-65
2022/01/06 06:09:17;;;;;;;8.98;1.52;;;;;;;-0.12;100.00;101300.47;10088619;28;20113;-64
2022/01/06 06:14:14;;;;;;;3.67;1.25;;;;;;;-0.17;100.00;101299.56;10088783;28;20043;-70
2022/01/06 06:19:10;;;;;;;5.93;1.77;;;;;;;-0.32;100.00;101308.88;10083246;28;20082;-69
2022/01/06 06:24:07;;;;;;;6.00;1.83;;;;;;;-0.33;100.00;101320.66;10095808;28;20054;-70
2022/01/06 06:29:03;;;;;;;9.57;2.13;;;;;;;-0.41;100.00;101333.63;10091704;28;20089;-70
2022/01/06 06:34:00;;;;;;;8.88;1.85;;;;;;;-0.39;100.00;101337.72;10085957;28;20043;-70
2022/01/06 06:38:56;;;;;;;8.13;2.33;;;;;;;-0.38;100.00;101335.84;10096653;28;20154;-71
2022/01/06 06:43:53;;;;;;;8.32;2.15;;;;;;;-0.43;100.00;101339.22;10097956;28;21626;-71
2022/01/06 06:48:50;;;;;;;7.53;1.98;;;;;;;-0.51;100.00;101351.13;10084752;28;20074;-69
2022/01/06 06:53:46;;;;;;;9.13;3.03;;;;;;;-0.53;100.00;101368.53;10100583;28;20578;-70
2022/01/06 06:58:43;;;;;;;13.77;2.35;;;;;;;-0.54;100.00;101367.69;10091961;28;20046;-70
2022/01/06 07:03:40;;;;;;;9.07;2.20;;;;;;;-0.55;100.00;101381.34;10100860;28;20039;-69
2022/01/06 07:08:37;;;;;;;9.70;2.42;;;;;;;-0.58;100.00;101395.22;10074865;28;20113;-70
2022/01/06 07:13:33;;;;;;;7.70;1.70;;;;;;;-0.61;100.00;101390.31;10092132;28;20574;-69
2022/01/06 07:18:30;;;;;;;9.15;1.70;;;;;;;-0.62;100.00;101394.06;10083615;28;20094;-70
2022/01/06 07:23:26;;;;;;;9.07;2.25;;;;;;;-0.66;100.00;101397.19;10090522;28;20086;-69
2022/01/06 07:28:23;;;;;;;7.85;2.20;;;;;;;-0.64;100.00;101405.84;10076194;28;20055;-69
2022/01/06 07:33:19;;;;;;;18.00;4.28;;;;;;;-0.54;100.00;101405.28;10087288;28;20039;-69
2022/01/06 07:38:17;;;;;;;12.70;2.88;;;;;;;-0.47;100.00;101405.19;10077096;28;20053;-69
2022/01/06 07:43:14;;;;;;;8.85;2.47;;;;;;;-0.59;100.00;101412.41;10086040;28;20582;-70
2022/01/06 07:48:19;;;;;;;9.35;2.60;;;;;;;-0.48;100.00;101425.06;10083205;28;20796;-65
2022/01/06 07:53:15;;;;;;;6.88;2.30;;;;;;;-0.46;100.00;101439.09;10095211;28;20048;-66
2022/01/06 07:58:12;;;;;;;10.57;2.67;;;;;;;-0.30;100.00;101443.84;10094326;28;20046;-69
2022/01/06 08:03:08;;;;;;;8.25;2.13;;;;;;;-0.15;100.00;101456.03;10095239;28;20113;-69
2022/01/06 08:08:05;;;;;;;18.67;2.67;;;;;;;0.02;100.00;101467.78;10093657;28;20568;-69
2022/01/06 08:13:02;;;;;;;9.75;1.88;;;;;;;-0.04;100.00;101469.53;10097717;28;20077;-69
2022/01/06 08:17:58;;;;;;;14.40;1.90;;;;;;;-0.08;100.00;101464.84;10092533;28;20538;-70
2022/01/06 08:22:55;;;;;;;4.25;1.00;;;;;;;0.05;100.00;101463.81;10084318;28;20352;-69
2022/01/06 08:27:51;;;;;;;10.57;1.58;;;;;;;-0.02;100.00;101466.63;10094655;28;20081;-70
2022/01/06 08:32:48;;;;;;;5.78;1.13;;;;;;;0.26;100.00;101467.88;10100526;28;20081;-69
2022/01/06 08:37:44;;;;;;;6.38;1.30;;;;;;;0.25;100.00;101476.97;10084794;28;20089;-69
2022/01/06 08:42:41;;;;;;;8.18;1.73;;;;;;;0.34;100.00;101489.03;10082839;28;20077;-69
2022/01/06 08:47:38;;;;;;;9.52;1.35;;;;;;;0.45;100.00;101493.63;10103953;28;20070;-69
2022/01/06 08:52:36;;;;;;;7.50;1.73;;;;;;;0.52;100.00;101505.09;10103328;28;20078;-70
2022/01/06 08:57:32;;;;;;;5.93;1.52;;;;;;;0.58;100.00;101497.97;10090353;28;20074;-69
2022/01/06 09:02:29;;;;;;;5.53;1.17;;;;;;;0.65;100.00;101497.84;10083666;28;20051;-69
2022/01/06 09:07:26;;;;;;;8.57;1.33;;;;;;;0.79;100.00;101505.50;10094583;28;20789;-68
2022/01/06 09:12:23;;;;;;;6.10;1.58;;;;;;;0.92;100.00;101501.75;10089440;28;20142;-69
2022/01/06 09:17:20;;;;;;;9.35;1.88;;;;;;;1.02;100.00;101499.31;10091137;28;20075;-68
2022/01/06 09:22:17;;;;;;;16.23;1.25;;;;;;;1.04;100.00;101499.88;10112315;28;20070;-69
2022/01/06 09:27:13;;;;;;;4.32;1.13;;;;;;;1.22;100.00;101508.88;10086551;28;20511;-69
2022/01/06 09:32:10;;;;;;;6.20;1.17;;;;;;;1.27;100.00;101517.06;10095948;28;20391;-69
2022/01/06 09:37:07;;;;;;;10.15;1.58;;;;;;;1.36;100.00;101510.25;10095747;28;20050;-69
2022/01/06 09:42:04;;;;;;;9.57;1.55;;;;;;;1.52;100.00;101526.78;10078839;28;20054;-69
2022/01/06 09:47:02;;;;;;;7.07;1.45;;;;;;;1.84;100.00;101530.66;10084091;28;20094;-69
2022/01/06 09:51:59;;;;;;;6.72;1.33;;;;;;;2.02;100.00;101536.91;10084439;28;20130;-68
2022/01/06 09:56:55;;;;;;;8.40;1.20;;;;;;;2.33;100.00;101532.13;10086298;28;20047;-69
2022/01/06 10:01:53;;;;;;;6.95;1.13;;;;;;;2.63;100.00;101524.53;10086409;28;20526;-68
2022/01/06 10:07:03;;;;;;;6.90;1.10;;;;;;;2.85;100.00;101529.19;10085816;28;20700;-69
2022/01/06 10:12:06;;;;;;;7.13;1.10;;;;;;;3.09;100.00;101533.38;10092852;28;20427;-74
2022/01/06 10:17:04;;;;;;;6.70;1.85;;;;;;;3.20;100.00;101533.50;10087003;28;20050;-66
2022/01/06 10:22:00;;;;;;;10.43;0.90;;;;;;;3.15;100.00;101537.75;10092712;28;20082;-69
2022/01/06 10:27:06;;;;;;;7.90;1.02;;;;;;;3.28;100.00;101530.38;10089410;28;20050;-71
2022/01/06 10:32:05;;;;;;;9.85;1.83;;;;;;;3.57;100.00;101539.97;10085042;28;20142;-70
2022/01/06 10:37:15;;;;;;;9.73;1.40;;;;;;;3.62;100.00;101538.38;10088812;28;20047;-70
2022/01/06 10:42:12;;;;;;;9.52;1.52;;;;;;;3.96;100.00;101537.19;10081702;28;20655;-71
2022/01/06 10:47:09;;;;;;;5.90;1.00;;;;;;;3.87;100.00;101544.13;10090942;28;20569;-70
2022/01/06 10:52:05;;;;;;;8.48;2.25;;;;;;;3.98;100.00;101540.47;10084210;28;20098;-69
2022/01/06 10:57:07;;;;;;;9.73;1.25;;;;;;;3.98;100.00;101536.94;10094419;28;20130;-69
2022/01/06 11:02:05;;;;;;;8.40;1.20;;;;;;;4.13;100.00;101541.69;10089230;28;20101;-72
2022/01/06 11:07:03;;;;;;;6.25;0.93;;;;;;;4.04;100.00;101551.34;10081379;28;20102;-68
2022/01/06 11:16:56;;;;;;;8.10;1.00;;;;;;;4.33;100.00;101552.75;10093102;28;20061;-67
2022/01/06 11:21:59;;;;;;;6.30;1.15;;;;;;;4.33;100.00;101563.56;10088283;28;20069;-65
2022/01/06 11:27:06;;;;;;;5.10;0.90;;;;;;;4.54;100.00;101552.94;10085682;28;20121;-66
2022/01/06 11:32:05;;;;;;;6.03;1.08;;;;;;;4.80;100.00;101557.53;10094495;28;20047;-66
2022/01/06 11:37:12;;;;;;;5.13;0.75;;;;;;;4.68;100.00;101566.88;10090802;28;20054;-66
2022/01/06 11:42:18;;;;;;;5.80;0.98;;;;;;;4.51;100.00;101564.31;10090739;28;20147;-66
2022/01/06 11:47:15;;;;;;;12.15;1.02;;;;;;;4.64;100.00;101574.69;10096809;28;22007;-67
2022/01/06 11:52:16;;;;;;;7.57;0.80;;;;;;;4.40;100.00;101569.59;10093666;28;20125;-67
2022/01/06 11:57:13;;;;;;;5.47;0.88;;;;;;;4.68;100.00;101564.97;10089449;28;20482;-66
2022/01/06 12:02:20;;;;;;;7.00;1.17;;;;;;;4.89;100.00;101567.88;10093492;28;20118;-67
2022/01/06 12:07:17;;;;;;;5.28;1.15;;;;;;;5.19;100.00;101568.09;10088549;28;20055;-66
2022/01/06 12:12:16;;;;;;;5.10;0.82;;;;;;;5.02;100.00;101578.28;10104357;28;20561;-66
2022/01/06 12:17:13;;;;;;;8.02;0.95;;;;;;;5.27;100.00;101567.63;10092101;28;20042;-66
2022/01/06 12:22:11;;;;;;;8.02;0.70;;;;;;;5.72;100.00;101568.13;10096391;28;20571;-66
2022/01/06 12:27:07;;;;;;;7.00;1.27;;;;;;;5.78;100.00;101574.38;10101196;28;20050;-65
2022/01/06 12:32:09;;;;;;;6.30;0.88;;;;;;;5.87;100.00;101575.50;10098829;28;20047;-65
2022/01/06 12:37:05;;;;;;;11.23;1.40;;;;;;;6.26;99.15;101567.00;10102364;28;20875;-64
2022/01/06 12:42:05;;;;;;;7.78;1.05;;;;;;;6.65;100.00;101569.25;10095871;28;20491;-65
2022/01/06 12:47:04;;;;;;;6.93;1.13;;;;;;;6.66;99.25;101566.25;10100529;28;20109;-66
2022/01/06 12:52:01;;;;;;;4.80;0.90;;;;;;;6.63;95.52;101568.69;10091596;28;20047;-65
2022/01/06 12:57:03;;;;;;;3.05;1.00;;;;;;;6.70;94.99;101571.94;10095606;28;20403;-64
2022/01/06 13:02:09;;;;;;;4.65;0.90;;;;;;;6.86;91.27;101565.44;10112146;28;20101;-65
2022/01/06 13:07:10;;;;;;;5.57;0.60;;;;;;;6.65;86.16;101561.09;10097106;28;20062;-65
2022/01/06 13:12:19;;;;;;;3.55;0.60;;;;;;;6.58;87.13;101564.06;10092485;28;20082;-66
2022/01/06 13:17:23;;;;;;;3.38;0.55;;;;;;;6.55;88.60;101569.25;10096718;28;20082;-65
2022/01/06 13:23:01;;;;;;;3.80;0.80;;;;;;;6.24;88.42;101570.00;10099176;28;20038;-66
2022/01/06 13:28:13;;;;;;;3.03;0.90;;;;;;;6.39;85.85;101561.06;10099646;28;20187;-65
2022/01/06 13:33:13;;;;;;;4.57;0.90;;;;;;;6.51;87.71;101564.31;10097947;28;20073;-66
2022/01/06 13:38:17;;;;;;;6.07;1.00;;;;;;;6.15;90.48;101565.31;10100773;28;20055;-65
2022/01/06 13:43:19;;;;;;;9.00;1.10;;;;;;;6.29;91.40;101566.47;10098090;28;20110;-64
2022/01/06 13:53:37;;;;;;;5.07;1.08;;;;;;;5.70;95.07;101576.53;10101305;28;20742;-64
2022/01/06 13:58:46;;;;;;;4.35;0.90;;;;;;;5.61;96.59;101583.53;10099969;28;20110;-64
2022/01/06 14:03:43;;;;;;;8.25;1.38;;;;;;;5.32;100.00;101579.59;10106501;28;20038;-66
2022/01/06 14:08:41;;;;;;;7.35;0.88;;;;;;;5.24;100.00;101573.56;10091057;28;20042;-64
2022/01/06 14:13:38;;;;;;;7.72;0.88;;;;;;;5.28;100.00;101580.09;10097388;28;20043;-65
2022/01/06 14:18:35;;;;;;;4.07;0.82;;;;;;;5.27;100.00;101583.06;10092367;28;20144;-67
2022/01/06 14:23:33;;;;;;;9.05;0.90;;;;;;;5.27;100.00;101586.59;10093755;28;20067;-68
2022/01/06 14:28:31;;;;;;;4.45;0.80;;;;;;;5.31;100.00;101594.22;10097505;28;20074;-68
2022/01/06 14:33:27;;;;;;;7.85;1.60;;;;;;;5.08;100.00;101596.19;10090256;28;20047;-66
2022/01/06 14:38:25;;;;;;;6.40;1.30;;;;;;;4.83;100.00;101600.34;10079116;28;20150;-67
2022/01/06 14:43:22;;;;;;;5.72;1.13;;;;;;;4.76;100.00;101604.34;10082886;28;20074;-66
2022/01/06 14:48:18;;;;;;;7.28;1.15;;;;;;;4.72;100.00;101601.34;10084016;28;20418;-66
2022/01/06 14:53:16;;;;;;;7.40;1.33;;;;;;;4.57;100.00;101617.44;10089202;28;20470;-67
2022/01/06 14:58:12;;;;;;;7.20;1.33;;;;;;;4.36;100.00;101622.66;10077365;28;20415;-67
2022/01/06 15:03:11;;;;;;;4.95;1.20;;;;;;;4.33;100.00;101617.72;10082032;28;20054;-66
2022/01/06 15:08:08;;;;;;;8.40;1.20;;;;;;;4.32;100.00;101631.53;10076738;28;20081;-67
2022/01/06 15:13:05;;;;;;;9.45;1.33;;;;;;;4.38;100.00;101630.50;10094307;28;20117;-68
2022/01/06 15:18:01;;;;;;;9.10;1.30;;;;;;;4.34;100.00;101634.78;10090682;28;20047;-72
2022/01/06 15:22:58;;;;;;;10.60;2.30;;;;;;;4.33;100.00;101633.97;10092488;28;20051;-68
2022/01/06 15:27:55;;;;;;;10.93;2.92;;;;;;;4.23;100.00;101633.84;10089624;28;20114;-68
2022/01/06 15:32:51;;;;;;;9.02;2.17;;;;;;;4.16;100.00;101627.81;10095484;28;20078;-69
2022/01/06 15:37:48;;;;;;;12.60;1.85;;;;;;;4.08;100.00;101641.78;10094436;28;20086;-68
2022/01/06 15:42:44;;;;;;;10.90;2.33;;;;;;;4.10;100.00;101645.88;10098318;28;20233;-67
2022/01/06 15:48:01;;;;;;;17.50;2.35;;;;;;;4.18;100.00;101636.50;10087606;28;20062;-68
2022/01/06 15:52:58;;;;;;;14.00;2.60;;;;;;;4.22;100.00;101648.44;10080442;28;20043;-68
2022/01/06 15:57:55;;;;;;;14.70;2.38;;;;;;;4.17;100.00;101643.78;10087205;28;20050;-68
2022/01/06 16:08:13;;;;;;;19.13;2.67;;;;;;;4.17;100.00;101651.91;10082596;28;20170;-68
2022/01/06 16:13:11;;;;;;;11.27;3.05;;;;;;;4.12;100.00;101653.75;10082600;28;20455;-68
2022/01/06 16:18:09;;;;;;;15.82;2.78;;;;;;;4.11;100.00;101646.72;10082415;28;20047;-67
2022/01/06 16:23:05;;;;;;;11.55;2.33;;;;;;;4.18;100.00;101647.34;10083493;28;20138;-68
2022/01/06 16:28:02;;;;;;;23.27;3.03;;;;;;;4.08;100.00;101637.19;10077694;28;20486;-67
2022/01/06 16:32:59;;;;;;;14.57;3.60;;;;;;;4.24;100.00;101640.09;10102992;28;20094;-68
2022/01/06 16:37:56;;;;;;;17.17;2.72;;;;;;;4.21;100.00;101641.41;10078281;28;20059;-68
2022/01/06 16:42:53;;;;;;;15.45;2.67;;;;;;;4.08;100.00;101641.78;10081499;28;20039;-67
2022/01/06 16:47:50;;;;;;;16.13;3.38;;;;;;;4.06;100.00;101643.91;10078146;28;20066;-67
2022/01/06 16:52:47;;;;;;;19.98;3.25;;;;;;;4.03;100.00;101636.31;10092478;28;20134;-68
2022/01/06 16:57:45;;;;;;;15.15;3.50;;;;;;;4.00;100.00;101630.31;10085949;28;20130;-66
2022/01/06 17:02:42;;;;;;;19.40;4.22;;;;;;;3.81;100.00;101626.31;10087933;28;20035;-66
2022/01/06 17:07:38;;;;;;;24.55;5.22;;;;;;;3.72;100.00;101627.78;10086125;28;20043;-68
2022/01/06 17:12:36;;;;;;;15.93;4.05;;;;;;;3.80;100.00;101619.22;10086319;28;20511;-67
2022/01/06 17:17:32;;;;;;;13.60;3.22;;;;;;;3.79;100.00;101617.63;10087012;28;20098;-68
2022/01/06 17:22:34;;;;;;;14.93;3.63;;;;;;;3.55;100.00;101612.44;10084182;28;20442;-66
2022/01/06 17:27:31;;;;;;;20.05;3.83;;;;;;;3.71;100.00;101607.22;10081913;28;20094;-66
2022/01/06 17:32:27;;;;;;;23.30;4.13;;;;;;;3.61;100.00;101620.59;10087693;28;20615;-70
2022/01/06 17:37:24;;;;;;;15.07;4.65;;;;;;;3.62;100.00;101627.63;10089189;28;20085;-70
2022/01/06 17:42:20;;;;;;;20.88;4.35;;;;;;;3.63;100.00;101623.88;10089307;28;20503;-71
2022/01/06 17:47:21;;;;;;;20.20;3.60;;;;;;;3.54;100.00;101616.19;10081146;28;20051;-71
2022/01/06 17:52:18;;;;;;;24.33;4.75;;;;;;;3.43;100.00;101619.78;10092428;28;20054;-70
2022/01/06 17:57:14;;;;;;;22.05;4.07;;;;;;;3.45;100.00;101611.44;10079403;28;20055;-68
2022/01/06 18:02:12;;;;;;;16.48;4.35;;;;;;;3.37;100.00;101608.09;10088657;28;20176;-68
2022/01/06 18:07:12;;;;;;;21.88;4.95;;;;;;;3.33;100.00;101616.94;10078119;28;20051;-70
2022/01/06 18:12:09;;;;;;;12.13;3.17;;;;;;;3.13;100.00;101617.44;10084399;28;20423;-68
2022/01/06 18:17:08;;;;;;;16.17;4.30;;;;;;;3.10;100.00;101615.25;10080578;28;20580;-70
2022/01/06 18:22:05;;;;;;;16.00;3.00;;;;;;;3.20;100.00;101619.97;10075681;28;20082;-68
2022/01/06 18:27:02;;;;;;;21.42;3.80;;;;;;;3.12;100.00;101616.63;10083015;28;20566;-71
2022/01/06 18:31:59;;;;;;;26.85;4.43;;;;;;;2.98;100.00;101623.44;10076181;28;20098;-70
2022/01/06 18:36:56;;;;;;;19.17;4.13;;;;;;;2.82;100.00;101613.44;10078283;28;20150;-70
2022/01/06 18:41:53;;;;;;;21.77;5.03;;;;;;;2.74;100.00;101612.75;10086352;28;20645;-70
2022/01/06 18:46:50;;;;;;;22.40;5.03;;;;;;;2.58;100.00;101608.16;10083213;28;20546;-68
2022/01/06 18:51:46;;;;;;;25.63;4.88;;;;;;;2.69;100.00;101607.28;10078730;28;20130;-67
2022/01/06 18:56:43;;;;;;;22.08;4.82;;;;;;;2.73;100.00;101603.00;10097706;28;20050;-69
2022/01/06 19:01:41;;;;;;;23.35;4.93;;;;;;;2.57;100.00;101598.41;10107859;28;20054;-69
2022/01/06 19:06:38;;;;;;;21.20;5.07;;;;;;;2.65;100.00;101591.81;10087008;28;20062;-69
2022/01/06 19:11:34;;;;;;;19.20;4.70;;;;;;;2.61;100.00;101596.84;10091655;28;20074;-70
2022/01/06 19:16:31;;;;;;;21.25;4.95;;;;;;;2.61;100.00;101586.06;10094991;28;20506;-69
2022/01/06 19:21:30;;;;;;;16.35;4.55;;;;;;;2.62;100.00;101586.88;10096441;28;20047;-70
2022/01/06 19:26:27;;;;;;;21.20;4.20;;;;;;;2.60;100.00;101584.44;10088857;28;20105;-70
2022/01/06 19:31:23;;;;;;;17.83;3.50;;;;;;;2.55;100.00;101581.63;10106978;28;20713;-70
2022/01/06 19:36:20;;;;;;;23.13;4.35;;;;;;;2.57;100.00;101574.09;10104139;28;20094;-70
2022/01/06 19:41:17;;;;;;;23.45;4.95;;;;;;;2.64;100.00;101574.75;10099994;28;20096;-69
2022/01/06 19:46:14;;;;;;;21.13;4.07;;;;;;;2.59;100.00;101571.97;10088740;28;20133;-69
2022/01/06 19:51:12;;;;;;;22.33;3.95;;;;;;;2.71;100.00;101564.63;10106628;28;20047;-70
2022/01/06 19:56:08;;;;;;;16.52;3.03;;;;;;;2.67;100.00;101560.78;10100346;28;20495;-69
2022/01/06 20:01:08;;;;;;;20.65;3.25;;;;;;;2.69;100.00;101564.06;10109729;28;20105;-69
2022/01/06 20:06:06;;;;;;;30.45;4.85;;;;;;;2.71;100.00;101551.13;10099685;28;20124;-69
2022/01/06 20:11:04;;;;;;;16.42;4.35;;;;;;;2.70;100.00;101548.69;10101784;28;20466;-69
2022/01/06 20:16:01;;;;;;;20.17;3.47;;;;;;;2.68;100.00;101548.91;10091710;28;20605;-69
2022/01/06 20:21:01;;;;;;;22.73;3.63;;;;;;;2.68;100.00;101543.53;10100375;28;20106;-69
2022/01/06 20:25:58;;;;;;;20.92;3.13;;;;;;;2.70;100.00;101541.41;10104943;28;20163;-69
2022/01/06 20:30:55;;;;;;;25.95;3.30;;;;;;;2.76;100.00;101546.88;10104865;28;20869;-69
2022/01/06 20:36:06;;;;;;;17.50;3.50;;;;;;;2.76;100.00;101539.59;10103049;28;20643;-68
2022/01/06 20:41:03;;;;;;;20.90;3.03;;;;;;;2.79;100.00;101539.13;10087244;28;20071;-65
2022/01/06 20:46:02;;;;;;;22.02;3.47;;;;;;;2.80;100.00;101539.94;10073234;28;20161;-67
2022/01/06 20:51:17;;;;;;;17.30;3.45;;;;;;;2.87;100.00;101529.78;10090722;28;20166;-64
2022/01/06 20:56:13;;;;;;;25.45;5.82;;;;;;;2.81;100.00;101514.53;10079752;28;20105;-65
2022/01/06 21:01:10;;;;;;;17.90;3.65;;;;;;;2.78;100.00;101515.84;10079288;28;20094;-65
2022/01/06 21:06:07;;;;;;;24.45;3.65;;;;;;;2.87;100.00;101508.16;10086904;28;20134;-65
2022/01/06 21:11:04;;;;;;;23.35;4.35;;;;;;;2.85;100.00;101510.28;10078653;28;20122;-66
2022/01/06 21:16:01;;;;;;;19.48;4.30;;;;;;;2.86;100.00;101506.53;10083416;28;20075;-66
2022/01/06 21:20:58;;;;;;;25.63;5.18;;;;;;;2.87;100.00;101513.56;10085129;28;20070;-67
2022/01/06 21:25:55;;;;;;;18.35;4.10;;;;;;;2.86;100.00;101501.13;10081127;28;20051;-66
2022/01/06 21:30:51;;;;;;;25.10;5.03;;;;;;;2.85;100.00;101499.47;10079108;28;20510;-66
2022/01/06 21:35:48;;;;;;;19.95;4.78;;;;;;;2.87;100.00;101502.75;10084190;28;20847;-67
2022/01/06 21:40:44;;;;;;;21.40;6.45;;;;;;;2.79;100.00;101503.19;10123974;28;20042;-67
2022/01/06 21:45:41;;;;;;;23.23;6.43;;;;;;;2.85;100.00;101496.78;10082311;28;20038;-63
2022/01/06 21:50:38;;;;;;;28.73;7.07;;;;;;;2.82;100.00;101505.38;10112783;28;20110;-66
2022/01/06 21:55:35;;;;;;;24.45;7.68;;;;;;;2.90;100.00;101491.44;10087836;28;20179;-67
2022/01/06 22:00:33;;;;;;;34.45;9.90;;;;;;;2.92;100.00;101495.56;10103127;28;20066;-66
2022/01/06 22:05:31;;;;;;;22.13;7.85;;;;;;;2.90;100.00;101481.50;10098269;28;20047;-66
2022/01/06 22:10:29;;;;;;;27.27;9.75;;;;;;;2.97;100.00;101486.72;10093435;28;20122;-66
2022/01/06 22:15:26;;;;;;;31.15;12.00;;;;;;;2.96;100.00;101485.06;10103966;28;20062;-65
2022/01/06 22:20:22;;;;;;;23.05;9.77;;;;;;;2.95;100.00;101478.03;10084617;28;20077;-66
2022/01/06 22:25:19;;;;;;;22.70;10.52;;;;;;;2.99;100.00;101487.25;10084627;28;20074;-66
2022/01/06 22:30:16;;;;;;;34.75;12.07;;;;;;;3.03;100.00;101477.59;10075354;28;20542;-67
2022/01/06 22:35:19;;;;;;;36.60;14.25;;;;;;;2.96;100.00;101474.25;10079752;28;20050;-65
2022/01/06 22:40:18;;;;;;;29.52;11.82;;;;;;;2.99;100.00;101460.25;10087267;28;20081;-65
2022/01/06 22:45:15;;;;;;;32.25;13.60;;;;;;;2.96;100.00;101466.16;10087123;28;20074;-65
2022/01/06 22:50:14;;;;;;;31.58;13.07;;;;;;;2.86;100.00;101469.53;10078986;28;20400;-66
2022/01/06 22:55:12;;;;;;;26.67;13.00;;;;;;;2.79;100.00;101463.50;10089377;28;20069;-67
2022/01/06 23:00:11;;;;;;;31.52;13.25;;;;;;;2.73;100.00;101465.28;10090644;28;20059;-67
2022/01/06 23:05:07;;;;;;;36.00;13.05;;;;;;;2.73;100.00;101459.88;10092847;28;20047;-66
2022/01/06 23:10:05;;;;;;;38.28;14.45;;;;;;;2.72;100.00;101447.47;10091673;28;20102;-67